createdAt,value
2022-11-04T00:01:59.295Z,12.35
2022-11-04T00:04:27.254Z,12.52
2022-11-04T00:06:54.572Z,14.43
2022-11-04T00:09:23.499Z,14.80
2022-11-04T00:12:09.105Z,14.75
2022-11-04T00:14:36.449Z,11.80
2022-11-04T00:17:22.481Z,12.32
2022-11-04T00:20:09.754Z,12.20
2022-11-04T00:22:55.700Z,12.32
2022-11-04T00:28:33.879Z,13.25
2022-11-04T00:31:19.924Z,14.20
2022-11-04T00:33:48.795Z,10.88
2022-11-04T00:36:15.809Z,11.35
2022-11-04T00:38:42.683Z,11.88
2022-11-04T00:41:26.417Z,12.23
2022-11-04T00:43:54.117Z,11.90
2022-11-04T00:46:20.873Z,10.73
2022-11-04T00:48:50.751Z,12.63
2022-11-04T00:51:17.448Z,12.05
2022-11-04T00:53:44.172Z,13.00
2022-11-04T00:56:10.855Z,14.13
2022-11-04T00:58:37.504Z,12.32
2022-11-04T01:01:17.852Z,11.93
2022-11-04T01:03:45.869Z,11.98
2022-11-04T01:06:12.679Z,12.25
2022-11-04T01:08:40.345Z,11.75
2022-11-04T01:11:08.545Z,13.38
2022-11-04T01:13:36.179Z,13.10
2022-11-04T01:16:04.975Z,11.93
2022-11-04T01:18:31.700Z,12.77
2022-11-04T01:21:02.713Z,11.10
2022-11-04T01:23:29.444Z,12.13
2022-11-04T01:25:56.387Z,12.65
2022-11-04T01:28:23.243Z,12.93
2022-11-04T01:30:49.864Z,12.57
2022-11-04T01:33:16.519Z,13.00
2022-11-04T01:35:43.146Z,10.82
2022-11-04T01:38:10.103Z,13.57
2022-11-04T01:40:38.085Z,10.43
2022-11-04T01:43:13.280Z,15.27
2022-11-04T01:45:39.932Z,11.27
2022-11-04T01:48:13.467Z,12.30
2022-11-04T01:50:40.162Z,12.75
2022-11-04T01:53:09.368Z,14.55
2022-11-04T01:55:41.881Z,15.23
2022-11-04T01:58:11.568Z,12.52
2022-11-04T02:00:39.551Z,13.00
2022-11-04T02:03:18.544Z,13.15
2022-11-04T02:05:46.477Z,13.60
2022-11-04T02:08:14.675Z,14.27
2022-11-04T02:10:43.125Z,13.55
2022-11-04T02:13:09.948Z,12.77
2022-11-04T02:15:45.560Z,12.65
2022-11-04T02:18:27.515Z,13.02
2022-11-04T02:21:18.692Z,13.80
2022-11-04T02:24:13.133Z,12.93
2022-11-04T02:26:45.532Z,12.98
2022-11-04T02:29:26.387Z,11.05
2022-11-04T02:32:11.652Z,13.10
2022-11-04T02:34:41.275Z,15.35
2022-11-04T02:37:19.898Z,15.30
2022-11-04T02:40:05.723Z,17.85
2022-11-04T02:43:29.595Z,13.80
2022-11-04T02:46:10.769Z,11.93
2022-11-04T02:48:41.543Z,12.85
2022-11-04T02:51:12.788Z,12.52
2022-11-04T02:53:44.315Z,11.25
2022-11-04T02:56:12.104Z,10.90
2022-11-04T02:58:46.375Z,11.32
2022-11-04T03:01:15.289Z,9.15
2022-11-04T03:03:47.366Z,12.02
2022-11-04T03:06:15.614Z,14.65
2022-11-04T03:08:46.714Z,13.10
2022-11-04T03:11:19.983Z,13.65
2022-11-04T03:14:04.245Z,11.00
2022-11-04T03:16:39.871Z,12.50
2022-11-04T03:19:15.574Z,11.55
2022-11-04T03:21:55.552Z,10.40
2022-11-04T03:24:22.253Z,12.52
2022-11-04T03:26:57.759Z,11.07
2022-11-04T03:29:31.361Z,12.48
2022-11-04T03:32:03.967Z,13.25
2022-11-04T03:34:30.702Z,12.10
2022-11-04T03:36:57.534Z,13.18
2022-11-04T03:39:24.413Z,11.13
2022-11-04T03:41:56.963Z,13.50
2022-11-04T03:44:24.832Z,13.73
2022-11-04T03:46:54.617Z,12.55
2022-11-04T03:49:22.744Z,11.30
2022-11-04T03:51:51.243Z,13.57
2022-11-04T03:54:18.273Z,14.98
2022-11-04T03:56:53.884Z,13.98
2022-11-04T03:59:31.202Z,15.48
2022-11-04T04:02:07.139Z,13.07
2022-11-04T04:04:39.943Z,11.70
2022-11-04T04:07:15.373Z,11.65
2022-11-04T04:09:51.041Z,12.75
2022-11-04T04:12:34.061Z,12.73
2022-11-04T04:15:10.264Z,12.07
2022-11-04T04:17:40.062Z,14.30
2022-11-04T04:20:11.470Z,14.65
2022-11-04T04:22:44.190Z,13.57
2022-11-04T04:25:29.871Z,13.88
2022-11-04T04:30:23.829Z,14.73
2022-11-04T04:32:57.147Z,16.30
2022-11-04T04:35:43.831Z,16.02
2022-11-04T04:38:43.860Z,15.07
2022-11-04T04:41:51.130Z,14.57
2022-11-04T04:44:44.268Z,13.20
2022-11-04T04:47:20.112Z,15.48
2022-11-04T04:50:05.852Z,13.15
2022-11-04T04:52:35.211Z,11.27
2022-11-04T04:55:01.828Z,11.60
2022-11-04T04:57:28.480Z,10.88
2022-11-04T04:59:55.123Z,13.75
2022-11-04T05:02:21.931Z,11.57
2022-11-04T05:04:48.634Z,13.65
2022-11-04T05:07:15.439Z,13.00
2022-11-04T05:09:42.035Z,13.32
2022-11-04T05:12:10.028Z,13.35
2022-11-04T05:14:36.716Z,13.52
2022-11-04T05:17:03.670Z,13.10
2022-11-04T05:19:30.384Z,18.67
2022-11-04T05:21:57.031Z,18.50
2022-11-04T05:24:23.619Z,14.07
2022-11-04T05:26:50.221Z,13.82
2022-11-04T05:29:16.863Z,13.35
2022-11-04T05:31:43.547Z,12.43
2022-11-04T05:34:14.007Z,16.80
2022-11-04T05:36:40.840Z,18.17
2022-11-04T05:39:08.020Z,14.35
2022-11-04T05:41:35.100Z,13.45
2022-11-04T05:44:03.593Z,12.73
2022-11-04T05:46:31.122Z,13.07
2022-11-04T05:48:57.830Z,15.27
2022-11-04T05:51:26.938Z,15.10
2022-11-04T05:53:53.898Z,12.68
2022-11-04T05:56:20.668Z,13.13
2022-11-04T05:58:47.293Z,14.88
2022-11-04T06:01:24.654Z,15.02
2022-11-04T06:03:52.382Z,14.48
2022-11-04T06:06:19.206Z,15.15
2022-11-04T06:08:45.791Z,14.32
2022-11-04T06:11:12.713Z,15.07
2022-11-04T06:13:39.318Z,14.65
2022-11-04T06:16:06.160Z,14.88
2022-11-04T06:18:32.807Z,12.73
2022-11-04T06:21:14.637Z,14.30
2022-11-04T06:23:41.901Z,13.80
2022-11-04T06:26:09.485Z,12.45
2022-11-04T06:28:36.400Z,12.60
2022-11-04T06:31:04.810Z,11.10
2022-11-04T06:33:36.515Z,12.40
2022-11-04T06:36:05.687Z,10.18
2022-11-04T06:38:34.019Z,9.43
2022-11-04T06:41:00.758Z,10.05
2022-11-04T06:43:27.499Z,11.68
2022-11-04T06:45:55.212Z,13.45
2022-11-04T06:48:22.078Z,12.45
2022-11-04T06:50:48.738Z,13.15
2022-11-04T10:16:51.210Z,20.10
2022-11-04T10:19:38.098Z,18.27
2022-11-04T10:22:11.832Z,15.38
2022-11-04T10:24:45.926Z,17.10
2022-11-04T10:27:27.930Z,17.33
2022-11-04T10:30:01.478Z,17.55
2022-11-04T10:32:53.187Z,16.88
2022-11-04T10:35:45.512Z,18.85
2022-11-04T10:38:22.644Z,19.20
2022-11-04T10:40:52.484Z,16.95
2022-11-04T10:43:31.009Z,19.10
2022-11-04T10:46:10.418Z,17.83
2022-11-04T10:48:44.319Z,15.13
2022-11-04T10:51:11.404Z,13.65
2022-11-04T10:53:38.117Z,15.57
2022-11-04T10:56:10.714Z,16.05
2022-11-04T10:58:43.587Z,14.38
2022-11-04T11:01:31.896Z,14.95
2022-11-04T11:03:59.444Z,14.50
2022-11-04T11:06:29.489Z,16.50
2022-11-04T11:09:15.155Z,14.98
2022-11-04T11:14:32.614Z,13.27
2022-11-04T11:17:14.569Z,10.13
2022-11-04T11:20:08.447Z,14.07
2022-11-04T11:22:40.826Z,14.45
2022-11-04T11:25:22.720Z,14.70
2022-11-04T11:27:52.103Z,13.30
2022-11-04T11:30:28.326Z,13.25
2022-11-04T11:33:04.068Z,12.25
2022-11-04T11:35:42.911Z,11.95
2022-11-04T11:38:19.031Z,9.88
2022-11-04T11:41:10.499Z,16.80
2022-11-04T11:43:35.765Z,15.70
2022-11-04T11:46:03.387Z,17.50
2022-11-04T11:48:31.235Z,15.55
2022-11-04T11:50:58.863Z,16.60
2022-11-04T11:53:27.138Z,16.40
2022-11-04T11:55:59.978Z,14.90
2022-11-04T12:01:29.805Z,16.92
2022-11-04T12:09:55.218Z,14.55
2022-11-04T12:12:43.035Z,14.27
2022-11-04T12:15:17.877Z,15.18
2022-11-04T12:17:55.631Z,11.73
2022-11-04T12:20:25.493Z,15.73
2022-11-04T12:22:55.347Z,16.02
2022-11-04T12:26:01.782Z,13.25
2022-11-04T12:28:40.538Z,15.23
2022-11-04T12:31:32.839Z,13.88
2022-11-04T12:34:02.278Z,13.30
2022-11-04T12:36:44.194Z,14.07
2022-11-04T12:39:15.024Z,11.95
2022-11-04T12:42:19.670Z,12.60
2022-11-04T12:44:46.852Z,11.75
2022-11-04T12:47:19.707Z,12.45
2022-11-04T12:50:09.613Z,13.68
2022-11-04T12:52:55.163Z,13.18
2022-11-04T12:55:43.885Z,14.15
2022-11-04T12:58:58.375Z,14.43
2022-11-04T13:01:30.475Z,12.68
2022-11-04T13:04:33.231Z,15.23
2022-11-04T13:07:14.700Z,14.63
2022-11-04T13:09:55.350Z,17.55
2022-11-04T13:12:29.474Z,16.20
2022-11-04T13:14:57.533Z,15.43
2022-11-04T13:17:34.928Z,14.35
2022-11-04T13:20:07.524Z,12.25
2022-11-04T13:22:36.651Z,11.93
2022-11-04T13:25:29.508Z,11.57
2022-11-04T13:27:57.140Z,12.15
2022-11-04T13:30:39.981Z,12.68
2022-11-04T13:33:36.108Z,12.45
2022-11-04T13:38:35.558Z,11.38
2022-11-04T13:41:22.096Z,12.18
2022-11-04T13:44:16.392Z,13.15
2022-11-04T13:46:48.425Z,14.52
2022-11-04T13:49:18.096Z,13.80
2022-11-04T13:51:47.053Z,14.07
2022-11-04T13:54:35.875Z,16.15
2022-11-04T13:57:10.445Z,16.30
2022-11-04T13:59:37.323Z,16.00
2022-11-04T14:02:18.982Z,13.02
2022-11-04T14:04:46.912Z,14.20
2022-11-04T14:07:17.880Z,13.75
2022-11-04T14:09:44.531Z,12.88
2022-11-04T14:12:11.166Z,13.00
2022-11-04T14:14:39.484Z,12.32
2022-11-04T14:17:35.008Z,14.48
2022-11-04T14:20:22.113Z,12.25
2022-11-04T14:23:00.267Z,14.15
2022-11-04T14:25:28.696Z,12.50
2022-11-04T14:28:02.800Z,12.13
2022-11-04T14:30:44.462Z,12.05
2022-11-04T14:33:24.036Z,14.07
2022-11-04T14:35:55.222Z,13.77
2022-11-04T14:38:28.942Z,14.35
2022-11-04T14:41:15.912Z,13.77
2022-11-04T14:43:45.137Z,14.90
2022-11-04T14:46:13.660Z,14.73
2022-11-04T14:48:44.334Z,13.52
2022-11-04T14:51:27.813Z,13.65
2022-11-04T14:54:13.664Z,13.18
2022-11-04T14:56:41.682Z,13.52
2022-11-04T14:59:08.399Z,14.10
2022-11-04T15:01:37.837Z,13.13
2022-11-04T15:04:26.924Z,13.23
2022-11-04T15:06:58.652Z,12.68
2022-11-04T15:09:27.873Z,12.77
2022-11-04T15:12:39.423Z,12.50
2022-11-04T15:15:32.054Z,14.15
2022-11-04T15:18:05.245Z,16.88
2022-11-04T15:20:32.737Z,14.85
2022-11-04T15:23:01.846Z,13.27
2022-11-04T15:25:28.636Z,13.80
2022-11-04T15:27:56.466Z,13.45
2022-11-04T15:30:26.392Z,14.50
2022-11-04T15:33:02.503Z,12.98
2022-11-04T15:35:30.643Z,14.02
2022-11-04T15:37:58.491Z,12.40
2022-11-04T15:40:27.293Z,13.07
2022-11-04T15:42:54.140Z,13.35
2022-11-04T15:45:35.377Z,12.18
2022-11-04T15:48:39.924Z,16.52
2022-11-04T15:51:06.584Z,14.43
2022-11-04T15:53:35.025Z,13.70
2022-11-04T15:56:01.939Z,12.73
2022-11-04T15:58:28.970Z,14.48
2022-11-04T19:27:30.983Z,22.67
2022-11-04T19:29:57.652Z,21.17
2022-11-04T19:32:24.265Z,19.23
2022-11-04T19:34:51.018Z,19.45
2022-11-04T19:37:17.868Z,20.15
2022-11-04T19:39:44.538Z,20.63
2022-11-04T19:42:30.687Z,19.17
2022-11-04T19:44:58.063Z,20.00
2022-11-04T19:47:25.036Z,21.27
2022-11-04T19:49:51.710Z,20.70
2022-11-04T19:52:18.674Z,20.42
2022-11-04T19:54:45.269Z,20.20
2022-11-04T19:57:11.933Z,22.30
2022-11-04T19:59:40.397Z,20.50
2022-11-04T20:02:07.123Z,21.55
2022-11-04T20:04:33.814Z,22.95
2022-11-04T20:07:00.404Z,21.80
2022-11-04T20:09:27.075Z,21.13
2022-11-04T20:12:12.476Z,21.90
2022-11-04T20:14:39.181Z,20.73
2022-11-04T20:17:06.935Z,20.02
2022-11-04T20:19:34.964Z,20.98
2022-11-04T20:22:01.752Z,22.23
2022-11-04T20:24:28.672Z,20.67
2022-11-04T20:26:55.362Z,22.60
2022-11-04T20:29:22.035Z,21.58
2022-11-04T20:31:48.927Z,21.77
2022-11-04T20:34:15.669Z,22.88
2022-11-04T20:36:42.854Z,21.30
2022-11-04T20:39:14.425Z,21.45
2022-11-04T20:41:41.661Z,21.60
2022-11-04T20:44:10.737Z,21.60
2022-11-04T20:46:40.478Z,20.58
2022-11-04T20:49:07.241Z,20.23
2022-11-04T20:51:36.178Z,22.75
2022-11-04T20:54:04.659Z,21.35
2022-11-04T20:56:34.104Z,23.48
2022-11-04T20:59:01.607Z,23.52
2022-11-04T21:01:33.438Z,21.48
2022-11-04T21:04:01.400Z,21.98
2022-11-04T21:06:28.583Z,21.77
2022-11-04T21:08:55.641Z,21.85
2022-11-04T21:11:25.224Z,22.15
2022-11-04T21:13:54.835Z,23.02
2022-11-04T21:16:21.812Z,23.08
2022-11-04T21:18:48.502Z,24.48
2022-11-04T21:21:16.302Z,24.25
2022-11-04T21:23:43.312Z,24.67
2022-11-04T21:26:21.540Z,25.42
2022-11-04T21:28:51.702Z,24.10
2022-11-04T21:31:18.295Z,24.30
2022-11-04T21:33:44.903Z,24.73
2022-11-04T21:36:12.492Z,23.35
2022-11-04T21:38:39.855Z,24.85
2022-11-04T21:41:09.204Z,24.63
2022-11-04T21:43:36.026Z,24.50
2022-11-04T21:46:11.206Z,24.52
2022-11-04T21:48:37.899Z,23.98
2022-11-04T21:51:07.237Z,26.63
2022-11-04T21:53:33.917Z,27.23
2022-11-04T21:56:12.859Z,27.05
2022-11-04T21:58:39.894Z,26.15
2022-11-04T22:01:07.974Z,25.65
2022-11-04T22:03:35.150Z,25.10
2022-11-04T22:06:01.765Z,27.67
2022-11-04T22:08:28.952Z,26.83
2022-11-04T22:10:56.017Z,24.52
2022-11-04T22:13:23.145Z,26.95
2022-11-04T22:15:58.865Z,24.15
2022-11-04T22:18:26.811Z,26.30
2022-11-04T22:20:53.640Z,26.38
2022-11-04T22:23:20.249Z,24.92
2022-11-04T22:25:50.159Z,26.52
2022-11-04T22:28:17.359Z,25.13
2022-11-04T22:30:44.083Z,27.45
2022-11-04T22:33:11.126Z,27.52
2022-11-04T22:35:37.976Z,25.30
2022-11-04T22:38:04.711Z,25.95
2022-11-04T22:40:31.557Z,29.30
2022-11-04T22:42:58.435Z,29.95
2022-11-04T22:45:25.046Z,25.70
2022-11-04T22:47:51.708Z,29.13
2022-11-04T22:50:18.635Z,27.60
2022-11-04T22:52:45.509Z,28.75
2022-11-04T22:55:13.792Z,28.52
2022-11-04T22:57:41.315Z,28.30
2022-11-04T23:00:10.334Z,30.38
2022-11-04T23:02:45.618Z,26.38
2022-11-04T23:05:13.580Z,27.52
2022-11-04T23:07:41.514Z,28.63
2022-11-04T23:10:27.281Z,36.72
2022-11-04T23:15:58.538Z,34.30
2022-11-04T23:21:31.010Z,31.13
2022-11-04T23:24:16.170Z,31.63
2022-11-04T23:26:43.129Z,32.47
2022-11-04T23:29:28.365Z,30.92
2022-11-04T23:31:54.978Z,31.90
2022-11-04T23:34:40.435Z,32.55
2022-11-04T23:37:13.147Z,35.00
2022-11-04T23:39:47.408Z,32.80
2022-11-04T23:42:19.459Z,33.75
2022-11-04T23:45:08.430Z,30.73
2022-11-04T23:47:56.246Z,36.67
2022-11-04T23:50:42.921Z,35.58
2022-11-04T23:53:30.622Z,36.45
2022-11-04T23:56:16.187Z,34.15
2022-11-04T23:59:01.486Z,36.22
